createdAt,value
2022-08-12T00:00:29.266Z,60944.69
2022-08-12T00:03:52.204Z,60944.69
2022-08-12T00:07:15.124Z,60944.69
2022-08-12T00:10:37.937Z,60944.69
2022-08-12T00:14:00.414Z,60944.69
2022-08-12T00:17:24.846Z,60944.69
2022-08-12T00:20:50.132Z,60944.69
2022-08-12T00:24:13.217Z,60944.69
2022-08-12T00:27:43.643Z,60944.69
2022-08-12T00:31:07.092Z,60944.69
2022-08-12T00:34:33.101Z,60944.69
2022-08-12T00:37:55.947Z,60944.69
2022-08-12T00:41:19.231Z,60944.69
2022-08-12T00:44:25.134Z,60944.69
2022-08-12T00:47:32.093Z,60944.69
2022-08-12T00:50:39.702Z,60944.69
2022-08-12T00:53:45.280Z,60944.69
2022-08-12T00:56:51.027Z,60944.69
2022-08-12T00:59:57.669Z,60944.69
2022-08-12T01:03:04.204Z,60944.69
2022-08-12T01:06:29.210Z,60944.69
2022-08-12T01:10:00.747Z,60944.69
2022-08-12T01:13:18.748Z,60944.69
2022-08-12T01:16:25.009Z,60944.69
2022-08-12T01:19:31.266Z,60944.69
2022-08-12T01:22:42.763Z,60944.69
2022-08-12T01:25:56.017Z,60944.69
2022-08-12T01:29:02.613Z,60944.69
2022-08-12T01:32:11.320Z,60944.69
2022-08-12T01:35:17.715Z,60944.69
2022-08-12T01:38:29.854Z,60944.69
2022-08-12T01:41:41.170Z,60944.69
2022-08-12T01:44:48.117Z,60944.69
2022-08-12T01:48:03.922Z,60944.69
2022-08-12T01:52:14.630Z,60944.69
2022-08-12T01:54:44.132Z,60944.69
2022-08-12T01:57:58.359Z,60944.69
2022-08-12T02:01:07.686Z,60944.69
2022-08-12T02:04:34.505Z,60944.69
2022-08-12T02:08:02.669Z,60944.69
2022-08-12T02:11:17.626Z,60944.69
2022-08-12T02:14:44.652Z,60944.69
2022-08-12T02:18:00.260Z,60944.69
2022-08-12T02:21:08.095Z,60944.69
2022-08-12T02:24:14.604Z,60944.69
2022-08-12T02:27:21.175Z,60944.69
2022-08-12T02:30:41.859Z,60944.69
2022-08-12T02:33:48.266Z,60944.69
2022-08-12T02:36:56.127Z,60944.69
2022-08-12T02:40:04.212Z,60944.69
2022-08-12T02:43:15.223Z,60944.69
2022-08-12T02:46:27.662Z,60944.69
2022-08-12T02:49:35.880Z,60944.69
2022-08-12T02:52:42.245Z,60944.69
2022-08-12T02:55:48.101Z,60944.69
2022-08-12T02:58:54.452Z,60944.69
2022-08-12T03:02:03.343Z,60944.69
2022-08-12T03:05:12.464Z,60944.69
2022-08-12T03:08:30.566Z,60944.69
2022-08-12T03:11:42.734Z,60944.69
2022-08-12T03:14:48.719Z,60944.69
2022-08-12T03:18:24.733Z,60944.69
2022-08-12T03:21:55.678Z,60944.69
2022-08-12T03:24:50.271Z,60944.69
2022-08-12T03:27:57.274Z,60944.69
2022-08-12T03:31:04.080Z,60944.69
2022-08-12T03:34:13.011Z,60944.69
2022-08-12T03:37:20.135Z,60944.69
2022-08-12T03:40:44.146Z,60944.69
2022-08-12T03:44:13.674Z,60944.69
2022-08-12T03:47:38.381Z,60944.69
2022-08-12T03:51:04.077Z,60944.69
2022-08-12T03:54:27.278Z,60944.69
2022-08-12T03:57:50.137Z,60944.69
2022-08-12T04:00:55.915Z,60944.69
2022-08-12T04:04:04.134Z,60944.69
2022-08-12T04:07:11.316Z,60944.69
2022-08-12T04:10:17.067Z,60944.69
2022-08-12T04:13:21.811Z,60944.69
2022-08-12T04:16:27.230Z,60944.69
2022-08-12T04:19:34.419Z,60944.69
2022-08-12T04:22:41.716Z,60944.69
2022-08-12T04:25:46.928Z,60944.69
2022-08-12T04:28:51.869Z,60944.69
2022-08-12T04:31:57.152Z,60944.69
2022-08-12T04:35:03.880Z,60944.69
2022-08-12T04:38:11.384Z,60944.69
2022-08-12T04:41:19.190Z,60944.69
2022-08-12T04:44:24.590Z,60944.69
2022-08-12T04:47:30.854Z,60944.69
2022-08-12T04:50:37.283Z,60944.69
2022-08-12T04:53:44.722Z,60944.69
2022-08-12T04:57:04.197Z,60944.69
2022-08-12T05:00:11.357Z,60944.69
2022-08-12T05:03:16.916Z,60944.69
2022-08-12T05:06:26.963Z,60944.69
2022-08-12T05:10:00.283Z,60944.69
2022-08-12T05:13:01.281Z,60944.69
2022-08-12T05:16:09.325Z,60944.69
2022-08-12T05:19:18.614Z,60944.69
2022-08-12T05:22:28.380Z,60944.69
2022-08-12T05:25:34.865Z,60944.69
2022-08-12T05:28:40.629Z,60944.69
2022-08-12T05:31:48.403Z,60944.69
2022-08-12T05:34:54.607Z,60944.69
2022-08-12T05:38:17.247Z,60944.69
2022-08-12T05:41:24.417Z,60944.69
2022-08-12T05:44:29.762Z,60944.69
2022-08-12T05:47:44.750Z,60944.69
2022-08-12T05:50:59.093Z,60944.69
2022-08-12T05:54:04.992Z,60944.69
2022-08-12T05:57:12.797Z,60944.69
2022-08-12T06:00:18.445Z,60944.69
2022-08-12T06:03:24.039Z,60944.69
2022-08-12T06:06:31.664Z,60944.69
2022-08-12T06:09:37.135Z,60944.69
2022-08-12T06:12:49.285Z,60944.69
2022-08-12T06:15:54.619Z,60944.69
2022-08-12T06:19:00.166Z,60944.69
2022-08-12T06:22:05.840Z,60944.69
2022-08-12T06:25:17.625Z,60944.69
2022-08-12T06:28:26.308Z,60944.69
2022-08-12T06:31:31.913Z,60944.69
2022-08-12T06:35:26.142Z,60944.69
2022-08-12T06:38:03.781Z,60944.69
2022-08-12T06:41:26.430Z,60944.69
2022-08-12T06:44:33.363Z,60944.69
2022-08-12T06:47:38.599Z,60944.69
2022-08-12T06:50:46.188Z,60944.69
2022-08-12T06:53:51.846Z,60944.69
2022-08-12T06:58:06.026Z,60944.69
2022-08-12T07:00:28.454Z,60944.69
2022-08-12T07:03:38.501Z,60944.69
2022-08-12T07:06:44.882Z,60944.69
2022-08-12T07:10:04.903Z,60944.69
2022-08-12T07:13:12.587Z,60944.69
2022-08-12T07:16:19.984Z,60944.69
2022-08-12T07:19:25.278Z,60944.69
2022-08-12T07:22:46.105Z,60944.69
2022-08-12T07:25:54.113Z,60944.69
2022-08-12T07:29:03.543Z,60944.69
2022-08-12T07:32:10.539Z,60944.69
2022-08-12T07:35:17.597Z,60944.69
2022-08-12T07:38:29.426Z,60944.69
2022-08-12T07:41:35.750Z,60944.69
2022-08-12T07:44:40.843Z,60944.69
2022-08-12T07:47:47.526Z,60944.69
2022-08-12T07:50:52.978Z,60944.69
2022-08-12T07:54:00.776Z,60944.69
2022-08-12T07:57:11.773Z,60944.69
2022-08-12T08:00:18.390Z,60944.69
2022-08-12T08:03:25.872Z,60944.69
2022-08-12T08:06:31.825Z,60944.69
2022-08-12T08:09:39.186Z,60944.69
2022-08-12T08:12:58.853Z,60944.69
2022-08-12T08:16:05.832Z,60944.69
2022-08-12T08:19:19.316Z,60944.69
2022-08-12T08:22:32.043Z,60944.69
2022-08-12T08:25:47.303Z,60944.69
2022-08-12T08:28:53.150Z,60944.69
2022-08-12T08:32:01.592Z,60944.69
2022-08-12T08:35:10.592Z,60944.69
2022-08-12T08:38:17.643Z,60944.69
2022-08-12T08:42:14.156Z,60944.69
2022-08-12T08:45:21.185Z,60944.69
2022-08-12T08:48:26.546Z,60944.69
2022-08-12T08:51:33.185Z,60944.69
2022-08-12T08:54:39.003Z,60944.69
2022-08-12T08:57:46.239Z,60944.69
2022-08-12T09:00:51.624Z,60944.69
2022-08-12T09:05:13.906Z,60944.69
2022-08-12T09:07:51.324Z,60944.69
2022-08-12T09:10:49.446Z,60944.69
2022-08-12T09:14:10.554Z,60944.69
2022-08-12T09:17:21.209Z,60944.69
2022-08-12T09:20:31.595Z,60944.69
2022-08-12T09:24:00.313Z,60944.69
2022-08-12T09:27:03.659Z,60944.69
2022-08-12T09:30:16.214Z,60944.69
2022-08-12T09:34:29.426Z,60944.69
2022-08-12T09:37:00.566Z,60944.69
2022-08-12T09:40:57.865Z,60944.69
2022-08-12T09:43:54.053Z,60944.69
2022-08-12T09:47:10.491Z,60944.69
2022-08-12T09:50:20.470Z,60944.69
2022-08-12T09:53:35.976Z,60944.69
2022-08-12T09:56:58.315Z,60944.69
2022-08-12T10:00:14.574Z,60944.69
2022-08-12T10:03:32.477Z,60944.69
2022-08-12T10:06:55.496Z,60944.69
2022-08-12T10:10:03.036Z,60944.69
2022-08-12T10:13:35.725Z,60944.69
2022-08-12T10:16:45.403Z,60944.69
2022-08-12T10:19:53.143Z,60944.69
2022-08-12T10:23:01.955Z,60944.69
2022-08-12T10:26:37.646Z,60944.69
2022-08-12T10:30:03.171Z,103065.06
2022-08-12T10:33:18.147Z,60944.69
2022-08-12T10:36:40.313Z,60944.69
2022-08-12T10:40:00.942Z,60944.69
2022-08-12T10:43:26.385Z,60944.69
2022-08-12T10:46:35.311Z,60944.69
2022-08-12T10:50:02.761Z,60944.69
2022-08-12T10:53:09.676Z,60944.69
2022-08-12T10:56:15.622Z,60944.69
2022-08-12T10:59:39.115Z,60944.69
2022-08-12T11:04:24.606Z,60944.69
2022-08-12T11:07:09.188Z,60944.69
2022-08-12T11:09:59.574Z,60944.69
2022-08-12T11:13:09.372Z,60944.69
2022-08-12T11:16:19.495Z,60944.69
2022-08-12T11:19:29.230Z,60944.69
2022-08-12T11:22:38.907Z,60944.69
2022-08-12T11:25:57.574Z,60944.69
2022-08-12T11:29:05.882Z,60944.69
2022-08-12T11:32:27.634Z,60944.69
2022-08-12T11:35:36.277Z,60944.69
2022-08-12T11:38:42.880Z,60944.69
2022-08-12T11:41:55.182Z,60944.69
2022-08-12T11:45:05.165Z,60944.69
2022-08-12T11:48:10.604Z,60944.69
2022-08-12T11:51:22.166Z,60944.69
2022-08-12T11:54:29.779Z,60944.69
2022-08-12T11:58:40.575Z,60944.69
2022-08-12T12:04:31.243Z,60944.69
2022-08-12T12:08:38.111Z,60944.69
2022-08-12T12:11:09.450Z,60944.69
2022-08-12T12:14:15.775Z,60944.69
2022-08-12T12:17:22.902Z,60944.69
2022-08-12T12:20:30.474Z,60944.69
2022-08-12T12:23:37.762Z,60944.69
2022-08-12T12:26:43.210Z,60944.69
2022-08-12T12:30:19.076Z,60944.69
2022-08-12T12:33:18.013Z,81800.91
2022-08-12T12:36:29.583Z,81762.69
2022-08-12T12:39:54.760Z,81796.19
2022-08-12T12:43:05.168Z,87803.38
2022-08-12T12:46:11.035Z,81722.13
2022-08-12T12:49:16.554Z,81688.31
2022-08-12T12:52:26.820Z,92159.16
2022-08-12T12:55:36.015Z,81956.53
2022-08-12T12:58:43.381Z,60944.69
2022-08-12T13:01:49.039Z,60944.69
2022-08-12T13:04:55.306Z,60944.69
2022-08-12T13:08:02.306Z,60944.69
2022-08-12T13:11:09.256Z,60944.69
2022-08-12T13:14:28.971Z,60944.69
2022-08-12T13:18:02.988Z,60944.69
2022-08-12T13:21:02.540Z,60944.69
2022-08-12T13:24:10.378Z,60944.69
2022-08-12T13:27:17.270Z,60944.69
2022-08-12T13:30:23.852Z,60944.69
2022-08-12T13:34:33.783Z,60944.69
2022-08-12T13:36:57.097Z,60944.69
2022-08-12T13:40:02.496Z,60944.69
2022-08-12T13:43:15.279Z,60944.69
2022-08-12T13:46:42.227Z,60944.69
2022-08-12T13:49:54.017Z,60944.69
2022-08-12T13:53:06.307Z,60944.69
2022-08-12T13:56:34.582Z,60944.69
2022-08-12T13:59:48.258Z,60944.69
2022-08-12T14:02:55.051Z,60944.69
2022-08-12T14:06:02.745Z,60944.69
2022-08-12T14:09:15.642Z,60944.69
2022-08-12T14:12:31.256Z,60944.69
2022-08-12T14:15:39.516Z,60944.69
2022-08-12T14:18:49.035Z,60944.69
2022-08-12T14:22:00.563Z,60944.69
2022-08-12T14:25:08.731Z,60944.69
2022-08-12T14:28:17.180Z,60944.69
2022-08-12T14:31:29.276Z,60944.69
2022-08-12T14:34:37.578Z,60944.69
2022-08-12T14:37:56.105Z,60944.69
2022-08-12T14:41:05.110Z,60944.69
2022-08-12T14:44:57.832Z,60944.69
2022-08-12T14:47:58.646Z,60944.69
2022-08-12T14:52:54.132Z,60944.69
2022-08-12T14:56:59.936Z,60944.69
2022-08-12T14:57:57.789Z,60944.69
2022-08-12T15:01:21.634Z,60944.69
2022-08-12T15:04:29.757Z,60944.69
2022-08-12T15:07:51.142Z,60944.69
2022-08-12T15:11:00.342Z,60944.69
2022-08-12T15:14:08.215Z,60944.69
2022-08-12T15:17:37.468Z,60944.69
2022-08-12T15:20:41.516Z,60944.69
2022-08-12T15:23:55.369Z,60944.69
2022-08-12T15:27:01.643Z,60944.69
2022-08-12T15:30:14.247Z,60944.69
2022-08-12T15:33:24.136Z,60944.69
2022-08-12T15:36:54.899Z,60944.69
2022-08-12T15:40:01.236Z,60944.69
2022-08-12T15:43:08.079Z,60944.69
2022-08-12T15:46:15.146Z,60944.69
2022-08-12T15:49:21.472Z,60944.69
2022-08-12T15:52:30.655Z,60944.69
2022-08-12T15:55:36.024Z,60944.69
2022-08-12T15:58:42.890Z,60944.69
2022-08-12T16:01:48.514Z,60944.69
2022-08-12T16:04:55.033Z,60944.69
2022-08-12T16:08:01.642Z,60944.69
2022-08-12T16:11:14.881Z,60944.69
2022-08-12T16:14:21.071Z,60944.69
2022-08-12T16:18:18.317Z,60944.69
2022-08-12T16:20:56.017Z,60944.69
2022-08-12T18:49:19.076Z,99481.38
2022-08-12T18:52:33.838Z,99480.09
2022-08-12T18:55:39.659Z,99473.91
2022-08-12T18:59:03.088Z,99473.09
2022-08-12T19:02:17.962Z,99473.19
2022-08-12T19:05:54.091Z,99474.78
2022-08-12T19:08:56.603Z,99471.88
2022-08-12T19:12:20.882Z,99464.66
2022-08-12T19:15:27.011Z,99467.28
2022-08-12T19:18:39.889Z,99467.28
2022-08-12T19:21:56.577Z,99466.38
2022-08-12T19:25:19.889Z,99467.22
2022-08-12T19:28:30.181Z,99458.00
2022-08-12T19:31:55.904Z,99457.81
2022-08-12T19:38:31.402Z,99465.50
2022-08-12T19:41:55.873Z,99454.44
2022-08-12T19:45:06.577Z,99457.09
2022-08-12T19:48:18.797Z,99460.03
2022-08-12T19:51:33.301Z,99462.53
2022-08-12T19:54:43.979Z,99457.69
2022-08-12T19:58:02.258Z,99457.09
2022-08-12T20:01:11.049Z,99447.97
2022-08-12T20:04:16.957Z,99456.97
2022-08-12T20:07:23.589Z,99442.94
2022-08-12T20:10:35.128Z,99440.50
2022-08-12T20:13:42.393Z,99442.66
2022-08-12T20:16:57.727Z,99433.75
2022-08-12T20:20:18.948Z,99430.78
2022-08-12T20:23:37.140Z,99428.47
2022-08-12T20:26:55.454Z,99421.47
2022-08-12T20:30:01.121Z,99416.47
2022-08-12T20:33:06.438Z,99419.97
2022-08-12T20:36:42.648Z,99408.47
2022-08-12T20:39:56.609Z,99412.66
2022-08-12T20:43:06.507Z,99409.38
2022-08-12T20:46:13.718Z,99407.41
2022-08-12T20:49:20.849Z,99411.91
2022-08-12T20:52:41.671Z,99417.81
2022-08-12T20:55:56.616Z,99415.72
2022-08-12T20:59:21.633Z,99408.47
2022-08-12T21:02:31.238Z,99410.50
2022-08-12T21:09:31.808Z,99410.88
2022-08-12T21:12:37.659Z,99405.53
2022-08-12T21:15:54.860Z,99410.50
2022-08-12T21:19:07.973Z,99406.44
2022-08-12T21:22:24.789Z,99402.00
2022-08-12T21:25:36.113Z,99401.66
2022-08-12T21:28:58.599Z,99403.56
2022-08-12T21:32:41.078Z,99408.31
2022-08-12T21:35:50.544Z,99401.41
2022-08-12T21:38:59.513Z,99411.69
2022-08-12T21:42:07.285Z,99404.31
2022-08-12T21:45:46.784Z,99397.22
2022-08-12T21:48:40.051Z,99406.47
2022-08-12T21:51:50.599Z,99393.13
2022-08-12T21:54:56.479Z,99392.13
2022-08-12T21:58:10.728Z,99390.03
2022-08-12T22:01:22.718Z,99388.22
2022-08-12T22:04:49.893Z,99387.56
2022-08-12T22:07:59.219Z,99391.25
2022-08-12T22:11:04.660Z,99384.66
2022-08-12T22:14:21.313Z,99383.00
2022-08-12T22:17:49.681Z,99384.59
2022-08-12T22:20:56.611Z,99374.50
2022-08-12T22:24:05.538Z,99380.84
2022-08-12T22:27:31.546Z,99374.91
2022-08-12T22:30:54.057Z,99369.75
2022-08-12T22:34:00.256Z,99371.16
2022-08-12T22:37:19.797Z,99370.53
2022-08-12T22:40:30.318Z,99364.38
2022-08-12T22:44:00.710Z,99355.28
2022-08-12T22:47:49.654Z,99347.84
2022-08-12T22:50:53.067Z,99362.16
2022-08-12T22:53:58.430Z,99350.25
2022-08-12T22:57:11.809Z,99347.53
2022-08-12T23:00:24.195Z,99349.72
2022-08-12T23:03:49.369Z,99339.09
2022-08-12T23:06:56.961Z,99348.47
2022-08-12T23:10:03.263Z,99346.56
2022-08-12T23:13:26.612Z,99346.31
2022-08-12T23:16:34.084Z,99343.00
2022-08-12T23:19:39.628Z,99342.13
2022-08-12T23:22:56.197Z,99342.47
2022-08-12T23:26:08.097Z,99351.88
2022-08-12T23:29:29.954Z,99344.88
2022-08-12T23:32:40.642Z,99343.22
2022-08-12T23:36:03.069Z,99345.63
2022-08-12T23:40:14.793Z,99345.19
2022-08-12T23:42:35.026Z,99349.06
2022-08-12T23:45:41.549Z,99346.41
2022-08-12T23:49:57.395Z,99344.75
2022-08-12T23:52:34.152Z,99344.09
2022-08-12T23:55:41.184Z,99341.44
2022-08-12T23:58:49.741Z,99339.41
